createdAt,value
2018-12-11T00:02:34.771Z,7.03
2018-12-11T00:05:04.043Z,7.03
2018-12-11T00:10:01.271Z,7.00
2018-12-11T00:12:30.615Z,7.01
2018-12-11T00:14:59.874Z,6.99
2018-12-11T00:19:57.156Z,6.96
2018-12-11T00:22:26.424Z,6.98
2018-12-11T00:24:55.695Z,6.97
2018-12-11T00:27:24.963Z,6.98
2018-12-11T00:29:54.231Z,6.99
2018-12-11T00:32:23.515Z,6.99
2018-12-11T00:34:52.791Z,6.96
2018-12-11T00:37:22.088Z,6.96
2018-12-11T00:39:51.359Z,6.96
2018-12-11T00:42:20.653Z,6.98
2018-12-11T00:44:49.916Z,7.00
2018-12-11T00:47:19.179Z,7.02
2018-12-11T00:49:48.463Z,7.04
2018-12-11T00:52:17.727Z,7.02
2018-12-11T00:54:47.009Z,7.03
2018-12-11T00:57:16.280Z,7.03
2018-12-11T00:59:45.563Z,7.03
2018-12-11T01:02:14.818Z,7.05
2018-12-11T01:04:44.086Z,7.05
2018-12-11T01:07:13.358Z,7.05
2018-12-11T01:09:42.634Z,7.07
2018-12-11T01:12:11.900Z,7.09
2018-12-11T01:14:41.178Z,7.10
2018-12-11T01:17:10.437Z,7.09
2018-12-11T01:19:39.707Z,7.09
2018-12-11T01:22:08.968Z,7.10
2018-12-11T01:24:38.239Z,7.08
2018-12-11T01:27:07.506Z,7.08
2018-12-11T01:29:36.783Z,7.07
2018-12-11T01:32:06.102Z,7.08
2018-12-11T01:34:35.387Z,7.04
2018-12-11T01:37:04.651Z,7.03
2018-12-11T01:39:33.938Z,7.04
2018-12-11T01:42:03.748Z,7.04
2018-12-11T01:44:33.018Z,7.03
2018-12-11T01:47:02.274Z,7.01
2018-12-11T01:49:31.550Z,7.00
2018-12-11T01:52:00.833Z,6.95
2018-12-11T01:54:30.121Z,6.96
2018-12-11T01:56:59.378Z,6.94
2018-12-11T01:59:28.655Z,6.94
2018-12-11T02:01:57.914Z,6.91
2018-12-11T02:04:27.187Z,6.91
2018-12-11T02:06:56.453Z,6.87
2018-12-11T02:09:25.730Z,6.84
2018-12-11T02:11:54.994Z,6.79
2018-12-11T02:14:24.272Z,6.77
2018-12-11T02:16:53.533Z,6.74
2018-12-11T02:19:22.813Z,6.74
2018-12-11T02:21:52.084Z,6.74
2018-12-11T02:24:21.379Z,6.71
2018-12-11T02:26:50.640Z,6.69
2018-12-11T02:29:19.925Z,6.68
2018-12-11T02:31:49.211Z,6.67
2018-12-11T02:34:18.497Z,6.65
2018-12-11T02:36:47.768Z,6.64
2018-12-11T02:39:17.053Z,6.63
2018-12-11T02:41:46.308Z,6.61
2018-12-11T02:44:35.181Z,6.62
2018-12-11T02:49:53.755Z,6.58
2018-12-11T02:52:23.027Z,6.53
2018-12-11T02:54:52.310Z,6.51
2018-12-11T02:57:21.567Z,6.52
2018-12-11T02:59:50.855Z,6.52
2018-12-11T03:02:20.127Z,6.50
2018-12-11T03:04:49.419Z,6.52
2018-12-11T03:07:18.684Z,6.49
2018-12-11T03:09:47.968Z,6.48
2018-12-11T03:12:17.240Z,6.46
2018-12-11T03:14:46.524Z,6.45
2018-12-11T03:17:15.785Z,6.45
2018-12-11T03:19:45.073Z,6.43
2018-12-11T03:22:14.350Z,6.42
2018-12-11T03:24:43.608Z,6.39
2018-12-11T03:27:12.882Z,6.40
2018-12-11T03:29:42.164Z,6.42
2018-12-11T03:32:11.451Z,6.41
2018-12-11T03:35:00.591Z,6.38
2018-12-11T03:37:29.882Z,6.41
2018-12-11T03:39:59.138Z,6.41
2018-12-11T03:42:28.428Z,6.38
2018-12-11T03:44:57.689Z,6.34
2018-12-11T03:47:46.576Z,6.33
2018-12-11T03:53:11.025Z,6.25
2018-12-11T03:55:40.291Z,6.24
2018-12-11T03:58:09.565Z,6.23
2018-12-11T04:00:38.844Z,6.24
2018-12-11T04:03:08.135Z,6.26
2018-12-11T04:05:37.412Z,6.23
2018-12-11T04:08:06.703Z,6.19
2018-12-11T04:10:35.965Z,6.17
2018-12-11T04:13:05.249Z,6.15
2018-12-11T04:15:34.862Z,6.14
2018-12-11T04:18:04.136Z,6.14
2018-12-11T04:20:33.404Z,6.10
2018-12-11T04:23:02.687Z,6.11
2018-12-11T04:25:31.944Z,6.08
2018-12-11T04:28:01.231Z,6.09
2018-12-11T04:30:30.504Z,6.08
2018-12-11T04:32:59.788Z,6.06
2018-12-11T04:35:48.935Z,6.08
2018-12-11T04:38:18.217Z,6.08
2018-12-11T04:40:47.541Z,6.05
2018-12-11T04:43:16.762Z,6.06
2018-12-11T04:46:05.086Z,6.08
2018-12-11T04:48:34.379Z,6.09
2018-12-11T04:51:03.641Z,6.08
2018-12-11T04:53:32.921Z,6.09
2018-12-11T04:56:02.187Z,6.08
2018-12-11T04:58:31.463Z,6.06
2018-12-11T05:01:00.723Z,6.03
2018-12-11T05:03:30.014Z,5.98
2018-12-11T05:05:59.296Z,5.99
2018-12-11T05:08:28.584Z,5.95
2018-12-11T05:10:57.843Z,5.97
2018-12-11T05:13:27.128Z,5.98
2018-12-11T05:18:24.392Z,5.99
2018-12-11T05:20:53.672Z,5.99
2018-12-11T05:23:22.958Z,5.99
2018-12-11T05:25:52.231Z,5.98
2018-12-11T05:28:21.523Z,5.97
2018-12-11T05:30:50.792Z,5.96
2018-12-11T05:33:20.114Z,5.93
2018-12-11T05:35:49.364Z,5.91
2018-12-11T05:38:18.676Z,5.89
2018-12-11T05:40:47.949Z,5.87
2018-12-11T05:43:17.217Z,5.86
2018-12-11T05:45:46.520Z,5.82
2018-12-11T05:48:15.792Z,5.80
2018-12-11T05:50:45.092Z,5.81
2018-12-11T05:53:14.359Z,5.79
2018-12-11T05:55:43.642Z,5.75
2018-12-11T05:58:32.506Z,5.75
2018-12-11T06:01:01.794Z,5.76
2018-12-11T06:03:31.069Z,5.73
2018-12-11T06:06:00.386Z,5.71
2018-12-11T06:08:29.674Z,5.71
2018-12-11T06:10:59.010Z,5.70
2018-12-11T06:13:28.285Z,5.71
2018-12-11T06:15:57.576Z,5.70
2018-12-11T06:18:26.849Z,5.67
2018-12-11T06:20:56.155Z,5.63
2018-12-11T06:23:25.420Z,5.62
2018-12-11T06:25:54.706Z,5.56
2018-12-11T06:28:23.970Z,5.57
2018-12-11T06:30:53.255Z,5.58
2018-12-11T06:33:22.528Z,5.56
2018-12-11T06:35:51.803Z,5.53
2018-12-11T06:38:21.067Z,5.52
2018-12-11T06:40:50.356Z,5.50
2018-12-11T06:43:19.622Z,5.49
2018-12-11T06:45:48.899Z,5.48
2018-12-11T06:48:18.164Z,5.48
2018-12-11T06:50:47.446Z,5.50
2018-12-11T06:53:36.578Z,5.49
2018-12-11T06:56:05.876Z,5.47
2018-12-11T06:58:35.135Z,5.44
2018-12-11T07:01:04.428Z,5.44
2018-12-11T07:03:33.682Z,5.44
2018-12-11T07:06:03.014Z,5.44
2018-12-11T07:08:32.286Z,5.44
2018-12-11T07:11:01.576Z,5.43
2018-12-11T07:13:30.845Z,5.40
2018-12-11T07:16:00.123Z,5.42
2018-12-11T07:18:29.392Z,5.44
2018-12-11T07:20:58.667Z,5.45
2018-12-11T07:23:27.941Z,5.46
2018-12-11T07:25:57.219Z,5.46
2018-12-11T07:28:26.494Z,5.46
2018-12-11T07:30:55.784Z,5.45
2018-12-11T07:33:25.047Z,5.46
2018-12-11T07:35:54.329Z,5.46
2018-12-11T07:38:23.605Z,5.48
2018-12-11T07:40:52.890Z,5.50
2018-12-11T07:43:22.165Z,5.51
2018-12-11T07:45:51.444Z,5.50
2018-12-11T07:48:20.716Z,5.50
2018-12-11T07:50:49.991Z,5.48
2018-12-11T07:53:19.257Z,5.48
2018-12-11T07:55:48.543Z,5.51
2018-12-11T07:58:17.806Z,5.49
2018-12-11T08:00:47.074Z,5.49
2018-12-11T08:03:16.352Z,5.50
2018-12-11T08:05:45.618Z,5.50
2018-12-11T08:08:33.605Z,5.49
2018-12-11T08:11:02.882Z,5.50
2018-12-11T08:13:32.138Z,5.48
2018-12-11T08:16:01.501Z,5.45
2018-12-11T08:18:30.769Z,5.47
2018-12-11T08:21:00.037Z,5.41
2018-12-11T08:23:29.311Z,5.42
2018-12-11T08:25:58.649Z,5.43
2018-12-11T08:28:27.910Z,5.48
2018-12-11T08:30:57.183Z,5.57
2018-12-11T08:33:26.447Z,5.66
2018-12-11T08:35:55.731Z,5.76
2018-12-11T08:38:24.983Z,5.86
2018-12-11T08:40:54.263Z,5.97
2018-12-11T08:43:23.522Z,6.04
2018-12-11T08:45:52.801Z,6.12
2018-12-11T08:48:22.071Z,6.15
2018-12-11T08:50:51.346Z,6.19
2018-12-11T08:53:20.607Z,6.22
2018-12-11T08:55:49.901Z,6.27
2018-12-11T08:58:19.195Z,6.27
2018-12-11T09:00:48.488Z,6.30
2018-12-11T09:03:17.762Z,6.34
2018-12-11T09:05:47.029Z,6.37
2018-12-11T09:08:16.300Z,6.38
2018-12-11T09:10:45.596Z,6.41
2018-12-11T09:13:14.874Z,6.44
2018-12-11T09:15:44.148Z,6.54
2018-12-11T09:18:13.433Z,6.59
2018-12-11T09:20:42.699Z,6.62
2018-12-11T09:23:11.991Z,6.71
2018-12-11T09:25:41.256Z,6.81
2018-12-11T09:28:30.144Z,6.97
2018-12-11T09:30:59.411Z,7.11
2018-12-11T09:33:28.700Z,7.25
2018-12-11T09:35:57.969Z,7.35
2018-12-11T09:38:27.254Z,7.45
2018-12-11T09:40:56.521Z,7.52
2018-12-11T09:43:25.799Z,7.59
2018-12-11T09:45:55.076Z,7.68
2018-12-11T09:48:24.359Z,7.73
2018-12-11T09:50:53.619Z,7.77
2018-12-11T09:53:22.911Z,7.80
2018-12-11T09:55:52.186Z,7.79
2018-12-11T09:58:21.471Z,7.80
2018-12-11T10:00:50.747Z,7.83
2018-12-11T10:03:20.026Z,7.91
2018-12-11T10:05:49.302Z,7.95
2018-12-11T10:10:54.346Z,8.18
2018-12-11T10:13:43.494Z,8.30
2018-12-11T10:16:12.766Z,8.41
2018-12-11T10:18:42.050Z,8.58
2018-12-11T10:21:11.314Z,8.70
2018-12-11T10:26:16.342Z,8.85
2018-12-11T10:28:45.639Z,8.91
2018-12-11T10:31:14.894Z,8.91
2018-12-11T10:33:44.169Z,8.88
2018-12-11T10:36:13.437Z,8.89
2018-12-11T10:38:42.709Z,8.89
2018-12-11T10:41:11.981Z,8.86
2018-12-11T10:43:41.273Z,8.86
2018-12-11T10:46:10.527Z,8.80
2018-12-11T10:48:39.799Z,8.70
2018-12-11T10:51:09.064Z,8.64
2018-12-11T10:53:38.344Z,8.59
2018-12-11T10:56:07.609Z,8.51
2018-12-11T10:58:36.907Z,8.44
2018-12-11T11:01:24.896Z,8.41
2018-12-11T11:03:54.262Z,8.38
2018-12-11T11:06:23.552Z,8.35
2018-12-11T11:08:52.861Z,8.36
2018-12-11T11:11:22.131Z,8.40
2018-12-11T11:13:51.415Z,8.41
2018-12-11T11:16:20.698Z,8.42
2018-12-11T11:18:49.981Z,8.39
2018-12-11T11:21:19.242Z,8.36
2018-12-11T11:23:48.555Z,8.38
2018-12-11T11:26:17.898Z,8.41
2018-12-11T11:28:47.233Z,8.43
2018-12-11T11:31:16.518Z,8.46
2018-12-11T11:33:45.793Z,8.50
2018-12-11T11:36:15.086Z,8.44
2018-12-11T11:38:44.373Z,8.48
2018-12-11T11:41:13.662Z,8.48
2018-12-11T11:43:42.935Z,8.43
2018-12-11T11:46:20.005Z,8.36
2018-12-11T11:48:49.232Z,8.31
2018-12-11T11:51:18.506Z,8.26
2018-12-11T11:53:47.829Z,8.24
2018-12-11T11:56:17.102Z,8.25
2018-12-11T11:58:46.377Z,8.31
2018-12-11T12:01:15.677Z,8.38
2018-12-11T12:03:44.945Z,8.42
2018-12-11T12:06:14.260Z,8.37
2018-12-11T12:08:43.549Z,8.40
2018-12-11T12:11:12.843Z,8.42
2018-12-11T12:13:42.123Z,8.45
2018-12-11T12:16:11.402Z,8.49
2018-12-11T12:18:40.668Z,8.53
2018-12-11T12:21:09.949Z,8.56
2018-12-11T12:23:58.317Z,8.59
2018-12-11T12:26:28.407Z,8.62
2018-12-11T12:28:57.774Z,8.58
2018-12-11T12:34:02.816Z,8.49
2018-12-11T12:36:32.100Z,8.44
2018-12-11T12:39:01.369Z,8.43
2018-12-11T12:41:30.654Z,8.43
2018-12-11T12:43:59.923Z,8.40
2018-12-11T12:46:29.202Z,8.40
2018-12-11T12:48:58.473Z,8.38
2018-12-11T12:51:27.752Z,8.36
2018-12-11T12:53:57.028Z,8.38
2018-12-11T12:56:26.326Z,8.43
2018-12-11T12:58:55.607Z,8.46
2018-12-11T13:01:24.883Z,8.44
2018-12-11T13:04:13.741Z,8.43
2018-12-11T13:09:18.731Z,8.38
2018-12-11T13:11:47.995Z,8.33
2018-12-11T13:14:17.260Z,8.27
2018-12-11T13:16:46.540Z,8.19
2018-12-11T13:19:15.801Z,8.12
2018-12-11T13:21:45.076Z,8.09
2018-12-11T13:24:14.353Z,8.10
2018-12-11T13:26:43.629Z,8.09
2018-12-11T13:29:12.884Z,8.04
2018-12-11T13:31:42.164Z,8.03
2018-12-11T13:34:11.443Z,8.04
2018-12-11T13:36:40.712Z,8.04
2018-12-11T13:39:09.977Z,8.02
2018-12-11T13:41:39.256Z,8.02
2018-12-11T13:44:08.505Z,7.96
2018-12-11T13:49:13.386Z,7.96
2018-12-11T13:51:42.657Z,7.94
2018-12-11T13:54:11.921Z,7.96
2018-12-11T13:56:41.193Z,7.98
2018-12-11T13:59:10.439Z,7.98
2018-12-11T14:01:39.690Z,7.94
2018-12-11T14:04:08.959Z,7.92
2018-12-11T14:06:38.231Z,7.94
2018-12-11T14:09:27.213Z,7.94
2018-12-11T14:11:56.573Z,7.94
2018-12-11T14:14:25.834Z,7.94
2018-12-11T14:16:55.137Z,7.92
2018-12-11T14:19:24.387Z,7.92
2018-12-11T14:21:53.655Z,7.83
2018-12-11T14:24:22.912Z,7.82
2018-12-11T14:26:52.184Z,7.81
2018-12-11T14:29:21.443Z,7.82
2018-12-11T14:31:50.730Z,7.85
2018-12-11T14:34:20.029Z,7.86
2018-12-11T14:36:49.288Z,7.89
2018-12-11T14:39:18.561Z,7.91
2018-12-11T14:41:47.931Z,7.93
2018-12-11T14:44:17.140Z,7.90
2018-12-11T14:46:46.406Z,7.87
2018-12-11T14:49:15.686Z,7.88
2018-12-11T14:51:44.952Z,7.87
2018-12-11T14:54:14.238Z,7.85
2018-12-11T14:56:43.497Z,7.84
2018-12-11T14:59:12.783Z,7.82
2018-12-11T15:01:42.040Z,7.81
2018-12-11T15:04:11.367Z,7.77
2018-12-11T15:06:40.632Z,7.73
2018-12-11T15:09:29.021Z,7.68
2018-12-11T15:11:58.291Z,7.65
2018-12-11T15:14:27.562Z,7.60
2018-12-11T15:16:56.828Z,7.58
2018-12-11T15:19:26.109Z,7.57
2018-12-11T15:21:55.433Z,7.56
2018-12-11T15:24:24.704Z,7.56
2018-12-11T15:26:53.968Z,7.57
2018-12-11T15:29:23.255Z,7.56
2018-12-11T15:31:52.542Z,7.55
2018-12-11T15:34:21.808Z,7.53
2018-12-11T15:36:51.079Z,7.53
2018-12-11T15:39:20.349Z,7.53
2018-12-11T15:41:49.615Z,7.52
2018-12-11T15:44:18.894Z,7.52
2018-12-11T15:46:48.239Z,7.54
2018-12-11T15:49:17.545Z,7.51
2018-12-11T15:51:46.801Z,7.50
2018-12-11T15:54:16.075Z,7.45
2018-12-11T15:57:04.476Z,7.43
2018-12-11T15:59:33.755Z,7.44
2018-12-11T16:02:03.015Z,7.45
2018-12-11T16:04:32.374Z,7.46
2018-12-11T16:07:01.630Z,7.42
2018-12-11T16:09:49.632Z,7.43
2018-12-11T16:12:18.898Z,7.45
2018-12-11T16:14:48.159Z,7.44
2018-12-11T16:17:17.441Z,7.46
2018-12-11T16:19:46.702Z,7.47
2018-12-11T16:22:15.992Z,7.45
2018-12-11T16:29:56.571Z,7.40
2018-12-11T16:32:25.833Z,7.40
2018-12-11T16:34:55.187Z,7.36
2018-12-11T16:37:24.636Z,7.35
2018-12-11T16:39:53.929Z,7.38
2018-12-11T16:42:23.183Z,7.40
2018-12-11T16:44:52.489Z,7.42
2018-12-11T16:47:21.745Z,7.44
2018-12-11T16:49:51.014Z,7.46
2018-12-11T16:52:20.276Z,7.46
2018-12-11T16:55:09.418Z,7.45
2018-12-11T16:57:38.711Z,7.43
2018-12-11T17:00:08.664Z,7.37
2018-12-11T17:02:37.930Z,7.34
2018-12-11T17:05:07.202Z,7.32
2018-12-11T17:07:36.475Z,7.34
2018-12-11T17:10:06.393Z,7.31
2018-12-11T17:12:35.734Z,7.30
2018-12-11T17:15:05.380Z,7.31
2018-12-11T17:17:34.729Z,7.33
2018-12-11T17:20:04.081Z,7.33
2018-12-11T17:22:33.345Z,7.31
2018-12-11T17:25:02.666Z,7.33
2018-12-11T17:27:31.945Z,7.32
2018-12-11T17:30:01.213Z,7.31
2018-12-11T17:32:30.490Z,7.30
2018-12-11T17:34:59.767Z,7.32
2018-12-11T17:37:29.043Z,7.33
2018-12-11T17:39:58.316Z,7.35
2018-12-11T17:42:27.598Z,7.38
2018-12-11T17:44:56.858Z,7.37
2018-12-11T17:47:26.154Z,7.33
2018-12-11T17:49:55.421Z,7.28
2018-12-11T17:52:24.687Z,7.22
2018-12-11T17:54:53.991Z,7.17
2018-12-11T17:57:23.258Z,7.16
2018-12-11T17:59:52.598Z,7.17
2018-12-11T18:02:26.476Z,7.15
2018-12-11T18:04:56.139Z,7.18
2018-12-11T18:07:25.405Z,7.17
2018-12-11T18:09:54.734Z,7.13
2018-12-11T18:12:24.099Z,7.10
2018-12-11T18:14:53.365Z,7.10
2018-12-11T18:17:22.657Z,7.11
2018-12-11T18:19:51.918Z,7.13
2018-12-11T18:22:21.281Z,7.13
2018-12-11T18:24:50.542Z,7.15
2018-12-11T18:27:19.819Z,7.17
2018-12-11T18:29:49.086Z,7.17
2018-12-11T18:32:22.292Z,7.17
2018-12-11T18:37:39.002Z,7.19
2018-12-11T18:40:09.817Z,7.18
2018-12-11T18:42:39.093Z,7.17
2018-12-11T18:45:09.133Z,7.16
2018-12-11T18:47:38.398Z,7.13
2018-12-11T18:50:07.974Z,7.12
2018-12-11T18:52:37.255Z,7.09
2018-12-11T18:55:06.729Z,7.05
2018-12-11T18:57:36.009Z,7.01
2018-12-11T19:00:05.947Z,6.93
2018-12-11T19:02:35.227Z,6.89
2018-12-11T19:05:04.492Z,6.89
2018-12-11T19:07:33.774Z,6.90
2018-12-11T19:10:03.045Z,6.86
2018-12-11T19:12:32.324Z,6.83
2018-12-11T19:15:04.764Z,6.83
2018-12-11T19:17:31.757Z,6.85
2018-12-11T19:20:01.017Z,6.83
2018-12-11T19:22:30.282Z,6.82
2018-12-11T19:24:59.796Z,6.78
2018-12-11T19:27:29.063Z,6.77
2018-12-11T19:29:58.335Z,6.79
2018-12-11T19:32:27.592Z,6.80
2018-12-11T19:34:56.871Z,6.81
2018-12-11T19:37:26.136Z,6.81
2018-12-11T19:40:01.911Z,6.80
2018-12-11T19:42:25.593Z,6.82
2018-12-11T19:44:54.866Z,6.83
2018-12-11T19:47:24.135Z,6.83
2018-12-11T19:49:53.435Z,6.86
2018-12-11T19:52:22.697Z,6.88
2018-12-11T19:54:51.975Z,6.88
2018-12-11T19:57:21.260Z,6.88
2018-12-11T19:59:50.537Z,6.89
2018-12-11T20:02:19.796Z,6.91
2018-12-11T20:04:49.067Z,6.92
2018-12-11T20:07:19.323Z,6.90
2018-12-11T20:10:27.113Z,6.89
2018-12-11T20:15:48.308Z,6.86
2018-12-11T20:18:19.783Z,6.87
2018-12-11T20:20:49.045Z,6.86
2018-12-11T20:23:18.327Z,6.87
2018-12-11T20:25:48.206Z,6.84
2018-12-11T20:28:18.123Z,6.81
2018-12-11T20:30:47.943Z,6.78
2018-12-11T20:33:17.568Z,6.76
2018-12-11T20:35:46.978Z,6.76
2018-12-11T20:38:17.021Z,6.74
2018-12-11T20:40:46.378Z,6.72
2018-12-11T20:43:16.441Z,6.70
2018-12-11T20:46:05.758Z,6.67
2018-12-11T20:48:54.694Z,6.65
2018-12-11T20:51:45.140Z,6.62
2018-12-11T20:54:16.221Z,6.58
2018-12-11T20:56:46.251Z,6.54
2018-12-11T20:59:15.768Z,6.52
2018-12-11T21:01:45.044Z,6.51
2018-12-11T21:04:14.348Z,6.49
2018-12-11T21:06:43.603Z,6.49
2018-12-11T21:09:16.179Z,6.48
2018-12-11T21:11:45.454Z,6.47
2018-12-11T21:14:14.727Z,6.47
2018-12-11T21:16:44.089Z,6.46
2018-12-11T21:19:13.550Z,6.45
2018-12-11T21:21:43.050Z,6.45
2018-12-11T21:27:01.596Z,6.44
2018-12-11T21:29:50.528Z,6.44
2018-12-11T21:32:19.829Z,6.43
2018-12-11T21:34:49.097Z,6.41
2018-12-11T21:37:18.399Z,6.40
2018-12-11T21:39:47.668Z,6.38
2018-12-11T21:42:16.966Z,6.35
2018-12-11T21:44:46.284Z,6.32
2018-12-11T21:47:15.573Z,6.31
2018-12-11T21:49:44.830Z,6.29
2018-12-11T21:52:14.112Z,6.30
2018-12-11T21:54:43.388Z,6.30
2018-12-11T21:57:12.672Z,6.30
2018-12-11T21:59:41.932Z,6.31
2018-12-11T22:02:11.199Z,6.31
2018-12-11T22:04:40.453Z,6.29
2018-12-11T22:07:09.728Z,6.27
2018-12-11T22:09:39.010Z,6.26
2018-12-11T22:14:57.523Z,6.22
2018-12-11T22:17:26.812Z,6.19
2018-12-11T22:19:56.068Z,6.17
2018-12-11T22:22:25.347Z,6.13
2018-12-11T22:24:54.597Z,6.09
2018-12-11T22:27:23.862Z,6.06
2018-12-11T22:30:12.200Z,6.02
2018-12-11T22:32:41.466Z,5.97
2018-12-11T22:35:10.743Z,5.91
2018-12-11T22:37:40.012Z,5.89
2018-12-11T22:40:09.289Z,5.84
2018-12-11T22:42:38.565Z,5.80
2018-12-11T22:45:07.843Z,5.75
2018-12-11T22:47:37.116Z,5.68
2018-12-11T22:50:06.427Z,5.62
2018-12-11T22:52:35.699Z,5.57
2018-12-11T22:55:04.984Z,5.52
2018-12-11T22:57:34.246Z,5.49
2018-12-11T23:00:03.528Z,5.45
2018-12-11T23:02:32.790Z,5.41
2018-12-11T23:05:02.072Z,5.37
2018-12-11T23:10:19.731Z,5.28
2018-12-11T23:12:48.997Z,5.23
2018-12-11T23:15:18.270Z,5.19
2018-12-11T23:17:47.538Z,5.16
2018-12-11T23:20:16.821Z,5.13
2018-12-11T23:22:46.081Z,5.10
2018-12-11T23:25:15.358Z,5.09
2018-12-11T23:27:44.617Z,5.09
2018-12-11T23:30:13.885Z,5.10
2018-12-11T23:32:43.150Z,5.11
2018-12-11T23:37:47.979Z,5.15
2018-12-11T23:40:17.264Z,5.15
2018-12-11T23:42:46.521Z,5.19
2018-12-11T23:45:15.802Z,5.21
2018-12-11T23:47:45.067Z,5.24
2018-12-11T23:50:14.343Z,5.27
2018-12-11T23:52:43.590Z,5.29
2018-12-11T23:55:12.868Z,5.31
2018-12-11T23:57:42.125Z,5.32
